sensor_id;sensor_type;location;lat;lon;timestamp;P1;durP1;ratioP1;P2;durP2;ratioP2
23015;SDS011;11674;52.428;13.584;2022-12-20T00:00:10;24.08;;;11.57;;
23015;SDS011;11674;52.428;13.584;2022-12-20T00:05:18;28.65;;;11.23;;
23015;SDS011;11674;52.428;13.584;2022-12-20T00:10:26;24.52;;;11.65;;
23015;SDS011;11674;52.428;13.584;2022-12-20T00:15:33;23.55;;;10.57;;
23015;SDS011;11674;52.428;13.584;2022-12-20T00:20:40;36.72;;;17.27;;
23015;SDS011;11674;52.428;13.584;2022-12-20T00:25:47;30.20;;;11.32;;
23015;SDS011;11674;52.428;13.584;2022-12-20T00:31:11;20.20;;;9.95;;
23015;SDS011;11674;52.428;13.584;2022-12-20T00:36:20;28.27;;;12.07;;
23015;SDS011;11674;52.428;13.584;2022-12-20T00:41:28;22.65;;;11.23;;
23015;SDS011;11674;52.428;13.584;2022-12-20T00:46:37;23.58;;;11.40;;
23015;SDS011;11674;52.428;13.584;2022-12-20T00:51:44;26.88;;;11.32;;
23015;SDS011;11674;52.428;13.584;2022-12-20T00:56:51;31.75;;;11.10;;
23015;SDS011;11674;52.428;13.584;2022-12-20T01:01:58;25.70;;;11.10;;
23015;SDS011;11674;52.428;13.584;2022-12-20T01:07:05;24.23;;;11.13;;
23015;SDS011;11674;52.428;13.584;2022-12-20T01:12:12;24.48;;;10.75;;
23015;SDS011;11674;52.428;13.584;2022-12-20T01:17:19;22.70;;;10.82;;
23015;SDS011;11674;52.428;13.584;2022-12-20T01:22:26;19.23;;;10.52;;
23015;SDS011;11674;52.428;13.584;2022-12-20T01:27:33;19.98;;;11.00;;
23015;SDS011;11674;52.428;13.584;2022-12-20T01:32:40;21.67;;;11.13;;
23015;SDS011;11674;52.428;13.584;2022-12-20T01:37:47;24.88;;;11.25;;
23015;SDS011;11674;52.428;13.584;2022-12-20T01:42:54;24.30;;;11.02;;
23015;SDS011;11674;52.428;13.584;2022-12-20T01:48:01;18.27;;;9.93;;
23015;SDS011;11674;52.428;13.584;2022-12-20T01:53:08;21.95;;;10.93;;
23015;SDS011;11674;52.428;13.584;2022-12-20T01:58:17;23.15;;;10.85;;
23015;SDS011;11674;52.428;13.584;2022-12-20T02:03:27;27.47;;;11.73;;
23015;SDS011;11674;52.428;13.584;2022-12-20T02:08:36;22.95;;;11.35;;
23015;SDS011;11674;52.428;13.584;2022-12-20T02:30:37;20.30;;;10.90;;
23015;SDS011;11674;52.428;13.584;2022-12-20T02:35:47;24.08;;;11.23;;
23015;SDS011;11674;52.428;13.584;2022-12-20T02:40:59;19.42;;;10.80;;
23015;SDS011;11674;52.428;13.584;2022-12-20T02:46:10;21.52;;;10.93;;
23015;SDS011;11674;52.428;13.584;2022-12-20T02:51:18;24.65;;;11.43;;
23015;SDS011;11674;52.428;13.584;2022-12-20T02:56:33;25.83;;;10.80;;
23015;SDS011;11674;52.428;13.584;2022-12-20T03:01:49;25.00;;;11.02;;
23015;SDS011;11674;52.428;13.584;2022-12-20T03:07:01;21.25;;;11.18;;
23015;SDS011;11674;52.428;13.584;2022-12-20T03:12:13;19.55;;;11.27;;
23015;SDS011;11674;52.428;13.584;2022-12-20T03:17:20;23.27;;;11.07;;
23015;SDS011;11674;52.428;13.584;2022-12-20T03:22:27;22.05;;;10.95;;
23015;SDS011;11674;52.428;13.584;2022-12-20T03:27:35;21.73;;;10.40;;
23015;SDS011;11674;52.428;13.584;2022-12-20T03:32:42;21.10;;;10.25;;
23015;SDS011;11674;52.428;13.584;2022-12-20T03:37:49;24.30;;;11.35;;
23015;SDS011;11674;52.428;13.584;2022-12-20T03:42:56;20.55;;;9.45;;
23015;SDS011;11674;52.428;13.584;2022-12-20T03:48:03;26.40;;;11.00;;
23015;SDS011;11674;52.428;13.584;2022-12-20T03:53:11;23.02;;;10.18;;
23015;SDS011;11674;52.428;13.584;2022-12-20T03:58:18;21.17;;;11.27;;
23015;SDS011;11674;52.428;13.584;2022-12-20T04:03:26;21.27;;;10.77;;
23015;SDS011;11674;52.428;13.584;2022-12-20T04:08:33;19.73;;;10.02;;
23015;SDS011;11674;52.428;13.584;2022-12-20T04:13:45;21.88;;;10.55;;
23015;SDS011;11674;52.428;13.584;2022-12-20T04:18:54;23.13;;;11.32;;
23015;SDS011;11674;52.428;13.584;2022-12-20T04:24:05;20.30;;;10.70;;
23015;SDS011;11674;52.428;13.584;2022-12-20T04:29:26;23.48;;;10.25;;
23015;SDS011;11674;52.428;13.584;2022-12-20T04:34:33;23.05;;;10.60;;
23015;SDS011;11674;52.428;13.584;2022-12-20T04:39:39;22.13;;;10.13;;
23015;SDS011;11674;52.428;13.584;2022-12-20T04:44:56;21.17;;;10.27;;
23015;SDS011;11674;52.428;13.584;2022-12-20T04:50:04;14.45;;;8.52;;
23015;SDS011;11674;52.428;13.584;2022-12-20T04:55:14;18.70;;;9.82;;
23015;SDS011;11674;52.428;13.584;2022-12-20T05:00:21;22.25;;;10.90;;
23015;SDS011;11674;52.428;13.584;2022-12-20T05:05:36;20.58;;;10.55;;
23015;SDS011;11674;52.428;13.584;2022-12-20T05:10:42;21.90;;;10.32;;
23015;SDS011;11674;52.428;13.584;2022-12-20T05:15:53;18.40;;;9.88;;
23015;SDS011;11674;52.428;13.584;2022-12-20T05:21:05;17.10;;;9.57;;
23015;SDS011;11674;52.428;13.584;2022-12-20T05:26:12;23.40;;;11.20;;
23015;SDS011;11674;52.428;13.584;2022-12-20T05:31:19;21.23;;;9.65;;
23015;SDS011;11674;52.428;13.584;2022-12-20T05:36:27;23.15;;;10.10;;
23015;SDS011;11674;52.428;13.584;2022-12-20T05:41:37;17.77;;;9.43;;
23015;SDS011;11674;52.428;13.584;2022-12-20T05:46:45;17.42;;;9.32;;
23015;SDS011;11674;52.428;13.584;2022-12-20T05:51:58;20.77;;;9.73;;
23015;SDS011;11674;52.428;13.584;2022-12-20T05:57:05;19.25;;;10.30;;
23015;SDS011;11674;52.428;13.584;2022-12-20T06:02:14;19.60;;;9.95;;
23015;SDS011;11674;52.428;13.584;2022-12-20T06:07:26;19.33;;;10.00;;
23015;SDS011;11674;52.428;13.584;2022-12-20T06:12:33;17.65;;;9.80;;
23015;SDS011;11674;52.428;13.584;2022-12-20T06:17:40;18.25;;;10.00;;
23015;SDS011;11674;52.428;13.584;2022-12-20T06:22:48;19.83;;;10.00;;
23015;SDS011;11674;52.428;13.584;2022-12-20T06:27:56;17.77;;;9.85;;
23015;SDS011;11674;52.428;13.584;2022-12-20T06:33:03;24.30;;;9.95;;
23015;SDS011;11674;52.428;13.584;2022-12-20T06:38:10;18.08;;;9.70;;
23015;SDS011;11674;52.428;13.584;2022-12-20T06:43:17;19.50;;;9.88;;
23015;SDS011;11674;52.428;13.584;2022-12-20T06:48:28;20.40;;;10.37;;
23015;SDS011;11674;52.428;13.584;2022-12-20T06:53:38;17.85;;;9.40;;
23015;SDS011;11674;52.428;13.584;2022-12-20T06:58:45;17.70;;;9.30;;
23015;SDS011;11674;52.428;13.584;2022-12-20T07:03:51;18.48;;;9.25;;
23015;SDS011;11674;52.428;13.584;2022-12-20T07:08:58;20.42;;;10.27;;
23015;SDS011;11674;52.428;13.584;2022-12-20T07:14:05;18.08;;;9.27;;
23015;SDS011;11674;52.428;13.584;2022-12-20T07:19:13;19.95;;;9.63;;
23015;SDS011;11674;52.428;13.584;2022-12-20T07:24:20;20.88;;;9.65;;
23015;SDS011;11674;52.428;13.584;2022-12-20T07:29:27;17.80;;;9.95;;
23015;SDS011;11674;52.428;13.584;2022-12-20T07:34:37;18.00;;;9.30;;
23015;SDS011;11674;52.428;13.584;2022-12-20T07:39:44;20.42;;;9.75;;
23015;SDS011;11674;52.428;13.584;2022-12-20T07:44:51;17.42;;;9.65;;
23015;SDS011;11674;52.428;13.584;2022-12-20T07:49:58;18.80;;;9.50;;
23015;SDS011;11674;52.428;13.584;2022-12-20T07:55:05;21.52;;;9.27;;
23015;SDS011;11674;52.428;13.584;2022-12-20T08:00:15;20.80;;;10.00;;
23015;SDS011;11674;52.428;13.584;2022-12-20T08:05:22;18.33;;;8.75;;
23015;SDS011;11674;52.428;13.584;2022-12-20T08:10:29;23.27;;;10.15;;
23015;SDS011;11674;52.428;13.584;2022-12-20T08:15:36;19.02;;;9.30;;
23015;SDS011;11674;52.428;13.584;2022-12-20T08:20:43;20.65;;;10.32;;
23015;SDS011;11674;52.428;13.584;2022-12-20T08:25:50;19.70;;;9.38;;
23015;SDS011;11674;52.428;13.584;2022-12-20T08:31:01;18.67;;;9.50;;
23015;SDS011;11674;52.428;13.584;2022-12-20T08:36:10;18.73;;;10.38;;
23015;SDS011;11674;52.428;13.584;2022-12-20T08:41:18;21.05;;;9.90;;
23015;SDS011;11674;52.428;13.584;2022-12-20T08:46:32;24.67;;;10.77;;
23015;SDS011;11674;52.428;13.584;2022-12-20T08:51:39;19.73;;;9.93;;
23015;SDS011;11674;52.428;13.584;2022-12-20T08:56:46;18.83;;;9.43;;
23015;SDS011;11674;52.428;13.584;2022-12-20T09:01:53;19.77;;;9.43;;
23015;SDS011;11674;52.428;13.584;2022-12-20T09:07:00;25.08;;;10.20;;
23015;SDS011;11674;52.428;13.584;2022-12-20T09:12:07;23.63;;;10.50;;
23015;SDS011;11674;52.428;13.584;2022-12-20T09:17:15;16.27;;;9.43;;
23015;SDS011;11674;52.428;13.584;2022-12-20T09:22:22;18.10;;;9.13;;
23015;SDS011;11674;52.428;13.584;2022-12-20T09:27:29;17.45;;;9.95;;
23015;SDS011;11674;52.428;13.584;2022-12-20T09:32:36;18.08;;;9.10;;
23015;SDS011;11674;52.428;13.584;2022-12-20T09:37:43;22.33;;;9.82;;
23015;SDS011;11674;52.428;13.584;2022-12-20T09:42:51;18.55;;;9.05;;
23015;SDS011;11674;52.428;13.584;2022-12-20T09:47:58;17.58;;;9.80;;
23015;SDS011;11674;52.428;13.584;2022-12-20T09:58:50;22.33;;;9.87;;
23015;SDS011;11674;52.428;13.584;2022-12-20T10:04:01;18.73;;;9.55;;
23015;SDS011;11674;52.428;13.584;2022-12-20T10:25:32;24.00;;;9.75;;
23015;SDS011;11674;52.428;13.584;2022-12-20T10:30:40;19.47;;;9.57;;
23015;SDS011;11674;52.428;13.584;2022-12-20T10:35:48;19.85;;;9.50;;
23015;SDS011;11674;52.428;13.584;2022-12-20T10:41:00;19.73;;;9.70;;
23015;SDS011;11674;52.428;13.584;2022-12-20T10:46:07;19.05;;;10.07;;
23015;SDS011;11674;52.428;13.584;2022-12-20T10:51:20;21.23;;;8.90;;
23015;SDS011;11674;52.428;13.584;2022-12-20T10:56:31;18.58;;;9.80;;
23015;SDS011;11674;52.428;13.584;2022-12-20T11:01:41;19.98;;;10.45;;
23015;SDS011;11674;52.428;13.584;2022-12-20T11:06:50;19.03;;;9.57;;
23015;SDS011;11674;52.428;13.584;2022-12-20T11:17:16;17.75;;;8.93;;
23015;SDS011;11674;52.428;13.584;2022-12-20T11:22:33;15.68;;;8.65;;
23015;SDS011;11674;52.428;13.584;2022-12-20T11:38:38;18.85;;;9.63;;
23015;SDS011;11674;52.428;13.584;2022-12-20T11:54:27;18.13;;;9.48;;
23015;SDS011;11674;52.428;13.584;2022-12-20T11:59:40;21.95;;;9.20;;
23015;SDS011;11674;52.428;13.584;2022-12-20T12:04:57;16.48;;;8.77;;
23015;SDS011;11674;52.428;13.584;2022-12-20T12:10:14;18.67;;;9.70;;
23015;SDS011;11674;52.428;13.584;2022-12-20T12:15:32;21.15;;;9.68;;
23015;SDS011;11674;52.428;13.584;2022-12-20T12:25:53;17.10;;;10.05;;
23015;SDS011;11674;52.428;13.584;2022-12-20T12:31:05;25.02;;;12.40;;
23015;SDS011;11674;52.428;13.584;2022-12-20T12:42:00;19.45;;;10.63;;
23015;SDS011;11674;52.428;13.584;2022-12-20T12:52:42;17.83;;;10.25;;
23015;SDS011;11674;52.428;13.584;2022-12-20T12:57:54;23.13;;;10.90;;
23015;SDS011;11674;52.428;13.584;2022-12-20T13:19:35;21.73;;;10.98;;
23015;SDS011;11674;52.428;13.584;2022-12-20T13:24:54;23.48;;;10.90;;
23015;SDS011;11674;52.428;13.584;2022-12-20T13:40:34;20.25;;;11.77;;
23015;SDS011;11674;52.428;13.584;2022-12-20T13:45:42;23.33;;;11.35;;
23015;SDS011;11674;52.428;13.584;2022-12-20T13:50:53;21.53;;;10.90;;
23015;SDS011;11674;52.428;13.584;2022-12-20T14:01:33;21.20;;;11.70;;
23015;SDS011;11674;52.428;13.584;2022-12-20T14:06:40;21.65;;;10.48;;
23015;SDS011;11674;52.428;13.584;2022-12-20T14:11:48;20.75;;;10.40;;
23015;SDS011;11674;52.428;13.584;2022-12-20T14:16:54;21.80;;;11.25;;
23015;SDS011;11674;52.428;13.584;2022-12-20T14:22:01;22.27;;;11.13;;
23015;SDS011;11674;52.428;13.584;2022-12-20T14:27:11;20.15;;;10.07;;
23015;SDS011;11674;52.428;13.584;2022-12-20T14:32:20;23.20;;;11.73;;
23015;SDS011;11674;52.428;13.584;2022-12-20T14:42:36;26.27;;;13.88;;
23015;SDS011;11674;52.428;13.584;2022-12-20T14:48:03;23.58;;;12.30;;
23015;SDS011;11674;52.428;13.584;2022-12-20T14:53:16;21.27;;;11.35;;
23015;SDS011;11674;52.428;13.584;2022-12-20T14:58:31;25.77;;;12.35;;
23015;SDS011;11674;52.428;13.584;2022-12-20T15:03:53;25.83;;;12.52;;
23015;SDS011;11674;52.428;13.584;2022-12-20T15:09:01;26.77;;;12.02;;
23015;SDS011;11674;52.428;13.584;2022-12-20T15:19:53;23.35;;;12.18;;
23015;SDS011;11674;52.428;13.584;2022-12-20T15:25:00;26.05;;;12.27;;
23015;SDS011;11674;52.428;13.584;2022-12-20T15:30:11;22.80;;;12.32;;
23015;SDS011;11674;52.428;13.584;2022-12-20T15:35:18;25.80;;;13.40;;
23015;SDS011;11674;52.428;13.584;2022-12-20T15:40:26;27.15;;;13.63;;
23015;SDS011;11674;52.428;13.584;2022-12-20T15:45:32;25.80;;;12.48;;
23015;SDS011;11674;52.428;13.584;2022-12-20T15:50:41;27.00;;;12.90;;
23015;SDS011;11674;52.428;13.584;2022-12-20T15:55:55;28.10;;;13.75;;
23015;SDS011;11674;52.428;13.584;2022-12-20T16:01:02;25.88;;;13.32;;
23015;SDS011;11674;52.428;13.584;2022-12-20T16:06:10;32.35;;;13.70;;
23015;SDS011;11674;52.428;13.584;2022-12-20T16:11:24;26.70;;;13.10;;
23015;SDS011;11674;52.428;13.584;2022-12-20T16:16:33;33.05;;;14.15;;
23015;SDS011;11674;52.428;13.584;2022-12-20T16:21:46;28.73;;;14.85;;
23015;SDS011;11674;52.428;13.584;2022-12-20T16:26:54;27.73;;;14.80;;
23015;SDS011;11674;52.428;13.584;2022-12-20T16:32:01;26.88;;;14.43;;
23015;SDS011;11674;52.428;13.584;2022-12-20T16:37:08;29.42;;;13.70;;
23015;SDS011;11674;52.428;13.584;2022-12-20T16:42:15;26.05;;;13.32;;
23015;SDS011;11674;52.428;13.584;2022-12-20T16:47:24;29.38;;;13.93;;
23015;SDS011;11674;52.428;13.584;2022-12-20T16:52:31;27.05;;;13.75;;
23015;SDS011;11674;52.428;13.584;2022-12-20T16:57:37;31.08;;;14.40;;
23015;SDS011;11674;52.428;13.584;2022-12-20T17:02:45;32.15;;;14.82;;
23015;SDS011;11674;52.428;13.584;2022-12-20T17:07:52;31.35;;;14.95;;
23015;SDS011;11674;52.428;13.584;2022-12-20T17:13:00;27.80;;;14.43;;
23015;SDS011;11674;52.428;13.584;2022-12-20T17:18:07;29.63;;;15.40;;
23015;SDS011;11674;52.428;13.584;2022-12-20T17:23:14;30.63;;;14.98;;
23015;SDS011;11674;52.428;13.584;2022-12-20T17:28:21;32.97;;;14.20;;
23015;SDS011;11674;52.428;13.584;2022-12-20T17:33:28;29.35;;;14.65;;
23015;SDS011;11674;52.428;13.584;2022-12-20T17:38:35;33.50;;;15.70;;
23015;SDS011;11674;52.428;13.584;2022-12-20T17:43:42;32.75;;;15.70;;
23015;SDS011;11674;52.428;13.584;2022-12-20T17:48:49;28.05;;;14.95;;
23015;SDS011;11674;52.428;13.584;2022-12-20T17:53:56;35.75;;;16.20;;
23015;SDS011;11674;52.428;13.584;2022-12-20T17:59:05;35.15;;;15.40;;
23015;SDS011;11674;52.428;13.584;2022-12-20T18:04:13;28.20;;;14.02;;
23015;SDS011;11674;52.428;13.584;2022-12-20T18:09:21;28.42;;;13.93;;
23015;SDS011;11674;52.428;13.584;2022-12-20T18:14:28;30.95;;;14.52;;
23015;SDS011;11674;52.428;13.584;2022-12-20T18:19:35;29.40;;;14.75;;
23015;SDS011;11674;52.428;13.584;2022-12-20T18:24:42;31.50;;;14.82;;
23015;SDS011;11674;52.428;13.584;2022-12-20T18:29:52;28.50;;;14.50;;
23015;SDS011;11674;52.428;13.584;2022-12-20T18:35:00;31.02;;;14.52;;
23015;SDS011;11674;52.428;13.584;2022-12-20T18:40:07;27.23;;;14.68;;
23015;SDS011;11674;52.428;13.584;2022-12-20T18:45:14;31.13;;;15.23;;
23015;SDS011;11674;52.428;13.584;2022-12-20T18:50:21;32.85;;;14.25;;
23015;SDS011;11674;52.428;13.584;2022-12-20T18:55:28;27.95;;;14.02;;
23015;SDS011;11674;52.428;13.584;2022-12-20T19:00:35;29.80;;;14.15;;
23015;SDS011;11674;52.428;13.584;2022-12-20T19:05:42;29.55;;;14.50;;
23015;SDS011;11674;52.428;13.584;2022-12-20T19:16:38;24.98;;;12.85;;
23015;SDS011;11674;52.428;13.584;2022-12-20T19:21:45;25.05;;;12.27;;
23015;SDS011;11674;52.428;13.584;2022-12-20T19:26:52;26.30;;;12.65;;
23015;SDS011;11674;52.428;13.584;2022-12-20T19:31:59;27.42;;;12.43;;
23015;SDS011;11674;52.428;13.584;2022-12-20T19:37:06;24.10;;;12.60;;
23015;SDS011;11674;52.428;13.584;2022-12-20T19:42:13;25.90;;;11.98;;
23015;SDS011;11674;52.428;13.584;2022-12-20T19:47:20;23.33;;;11.95;;
23015;SDS011;11674;52.428;13.584;2022-12-20T19:52:27;25.50;;;11.95;;
23015;SDS011;11674;52.428;13.584;2022-12-20T19:57:34;21.65;;;10.98;;
23015;SDS011;11674;52.428;13.584;2022-12-20T20:02:41;28.33;;;11.88;;
23015;SDS011;11674;52.428;13.584;2022-12-20T20:07:48;25.90;;;12.05;;
23015;SDS011;11674;52.428;13.584;2022-12-20T20:12:55;22.50;;;11.02;;
23015;SDS011;11674;52.428;13.584;2022-12-20T20:18:02;23.80;;;11.70;;
23015;SDS011;11674;52.428;13.584;2022-12-20T20:23:09;26.00;;;11.27;;
23015;SDS011;11674;52.428;13.584;2022-12-20T20:28:16;25.70;;;12.05;;
23015;SDS011;11674;52.428;13.584;2022-12-20T20:33:23;19.80;;;11.02;;
23015;SDS011;11674;52.428;13.584;2022-12-20T20:38:31;21.75;;;11.35;;
23015;SDS011;11674;52.428;13.584;2022-12-20T20:43:39;23.20;;;11.90;;
23015;SDS011;11674;52.428;13.584;2022-12-20T20:48:46;25.95;;;11.98;;
23015;SDS011;11674;52.428;13.584;2022-12-20T20:53:53;24.80;;;11.52;;
23015;SDS011;11674;52.428;13.584;2022-12-20T20:59:00;26.13;;;12.20;;
23015;SDS011;11674;52.428;13.584;2022-12-20T21:04:07;25.35;;;11.65;;
23015;SDS011;11674;52.428;13.584;2022-12-20T21:09:14;25.40;;;11.88;;
23015;SDS011;11674;52.428;13.584;2022-12-20T21:14:21;27.88;;;13.18;;
23015;SDS011;11674;52.428;13.584;2022-12-20T21:19:28;21.40;;;12.07;;
23015;SDS011;11674;52.428;13.584;2022-12-20T21:24:35;24.63;;;11.88;;
23015;SDS011;11674;52.428;13.584;2022-12-20T21:29:42;22.88;;;11.88;;
23015;SDS011;11674;52.428;13.584;2022-12-20T21:34:49;28.95;;;12.85;;
23015;SDS011;11674;52.428;13.584;2022-12-20T21:39:56;28.38;;;13.18;;
23015;SDS011;11674;52.428;13.584;2022-12-20T21:45:03;25.58;;;12.75;;
23015;SDS011;11674;52.428;13.584;2022-12-20T21:50:10;25.15;;;13.02;;
23015;SDS011;11674;52.428;13.584;2022-12-20T21:55:17;30.50;;;12.95;;
23015;SDS011;11674;52.428;13.584;2022-12-20T22:00:24;23.27;;;12.38;;
23015;SDS011;11674;52.428;13.584;2022-12-20T22:05:31;31.40;;;14.20;;
23015;SDS011;11674;52.428;13.584;2022-12-20T22:10:38;25.65;;;12.98;;
23015;SDS011;11674;52.428;13.584;2022-12-20T22:15:45;27.70;;;13.05;;
23015;SDS011;11674;52.428;13.584;2022-12-20T22:20:52;29.83;;;12.80;;
23015;SDS011;11674;52.428;13.584;2022-12-20T22:26:02;28.13;;;13.48;;
23015;SDS011;11674;52.428;13.584;2022-12-20T22:31:11;27.55;;;13.65;;
23015;SDS011;11674;52.428;13.584;2022-12-20T22:36:18;27.15;;;13.35;;
23015;SDS011;11674;52.428;13.584;2022-12-20T22:41:28;30.00;;;13.88;;
23015;SDS011;11674;52.428;13.584;2022-12-20T22:46:37;31.63;;;13.48;;
23015;SDS011;11674;52.428;13.584;2022-12-20T22:51:44;27.60;;;14.18;;
23015;SDS011;11674;52.428;13.584;2022-12-20T22:56:51;29.50;;;15.18;;
23015;SDS011;11674;52.428;13.584;2022-12-20T23:01:58;28.33;;;13.23;;
23015;SDS011;11674;52.428;13.584;2022-12-20T23:07:05;28.48;;;13.52;;
23015;SDS011;11674;52.428;13.584;2022-12-20T23:12:12;29.58;;;14.18;;
23015;SDS011;11674;52.428;13.584;2022-12-20T23:17:19;28.90;;;13.55;;
23015;SDS011;11674;52.428;13.584;2022-12-20T23:22:26;28.00;;;13.50;;
23015;SDS011;11674;52.428;13.584;2022-12-20T23:27:33;29.55;;;14.05;;
23015;SDS011;11674;52.428;13.584;2022-12-20T23:32:40;30.95;;;14.80;;
23015;SDS011;11674;52.428;13.584;2022-12-20T23:37:47;29.35;;;14.50;;
23015;SDS011;11674;52.428;13.584;2022-12-20T23:42:54;32.55;;;15.38;;
23015;SDS011;11674;52.428;13.584;2022-12-20T23:48:01;32.95;;;14.93;;
23015;SDS011;11674;52.428;13.584;2022-12-20T23:53:08;30.63;;;14.43;;
23015;SDS011;11674;52.428;13.584;2022-12-20T23:58:15;32.75;;;14.75;;
